首页
METAR-TAF:

METAR-TAF

机场 :

杜魯斯, 明尼蘇達州, 美国

纬度: 46-50-34N, 经度: 092-13-34W, 海拔: 435米

当前天气观测

该预报发布于54分钟前的06:55 UTC
风速6节,风向西转西北
温度 -22°C
湿度 84%
气压 1012 hPa
能見度: 11.3公里
多云层高于10000英尺

METAR: KDLH 100655Z 29006KT 7SM BKN100 M22/M24 A2988 RMK AO2 SLP162 I1000 T12221244

时间: 01:49 (07:49 UTC)

预报

该预报发布于2小时和18分钟前的05:31 UTC
预报有效从10日的 06点(UTC)到 11日的 06点(UTC)
风速7节,风向西北
能見度: 10公里
散云层高于1400英尺
散云层高于7000英尺
从 10日的 1200点(UTC)
风速9节,风向西转西北,有时为15节阵风
能見度: 10公里
散云层高于7000英尺
从 10日的 1700点(UTC)
风速9节,风向西转西北
能見度: 10公里
少量云层高于9000英尺

TAF: KDLH 100531Z 1006/1106 31007KT P6SM SCT014 SCT070 FM101200 30009G15KT P6SM SCT070 FM101700 30009KT P6SM FEW090

超过4000个机场的气象观测和天气预报(METAR&TAF报告)。

可查询的气象台以黄色和红色小点在地图上表示。

将鼠标移到小点上方,可查看气象台名称。

然后点击查看天气观测和预报。

如需切换地图:点击带黑十字的绿色按钮放大地图;点击带横线的绿色按钮缩小地图;或者点击绿色箭头查看邻近地区的地图。


METAR-TAF: